ADDS METAR Data INFO
IDs: Format: Raw Decoded Include TAF

Data at: 0747 UTC 23 Jul 2018

KONZ 230735Z AUTO 00000KT 10SM CLR 15/14 A2984 RMK AO2 T01460138
KONZ 230715Z AUTO 00000KT 10SM SCT060 15/14 A2985 RMK AO2 T01500140
KONZ 230655Z AUTO 00000KT 10SM CLR 15/14 A2985 RMK AO2 T01540141
KONZ 230635Z AUTO 00000KT 10SM CLR 15/14 A2985 RMK AO2 T01490138
KONZ 230615Z AUTO 00000KT 10SM CLR 15/14 A2985 RMK AO2 T01520141
KONZ 230555Z AUTO 32003KT 10SM CLR 15/14 A2984 RMK AO2 T01520139 10195 20152 402150152
KONZ 230535Z AUTO 00000KT 10SM CLR 16/14 A2985 RMK AO2 T01560143
KONZ 230515Z AUTO 00000KT 10SM CLR 16/14 A2985 RMK AO2 T01560138
KONZ 230455Z AUTO 00000KT 10SM CLR 16/14 A2986 RMK AO2 T01570142
KONZ 230435Z AUTO 00000KT 10SM SCT022 16/14 A2986 RMK AO2 T01610143
KONZ 230415Z AUTO 00000KT 10SM BKN022 BKN040 16/14 A2987 RMK AO2 T01600141
KONZ 230355Z AUTO 00000KT 10SM BKN040 17/14 A2987 RMK AO2 T01690141
KONZ 230335Z AUTO 00000KT 10SM BKN038 17/14 A2987 RMK AO2 T01740144
KONZ 230315Z AUTO 00000KT 10SM BKN036 18/14 A2987 RMK AO2 T01780142
KONZ 230255Z AUTO 00000KT 10SM OVC036 18/14 A2987 RMK AO2 T01810140
KONZ 230235Z AUTO 00000KT 10SM OVC036 18/14 A2987 RMK AO2 T01800144
KONZ 230215Z AUTO 00000KT 10SM OVC036 18/14 A2987 RMK AO2 T01820142
KONZ 230155Z AUTO 02003KT 10SM OVC036 18/14 A2987 RMK AO2 T01820140
KONZ 230135Z AUTO 36004KT 10SM SCT028 OVC034 18/14 A2986 RMK AO2 T01830138
KONZ 230115Z AUTO 02005KT 10SM OVC031 18/14 A2986 RMK AO2 T01830137
KONZ 230055Z AUTO 36003KT 10SM BKN029 19/14 A2986 RMK AO2 T01860138
KONZ 230035Z AUTO 36003KT 10SM CLR 19/14 A2985 RMK AO2 T01870137
KONZ 230015Z AUTO 34008KT 10SM CLR 19/14 A2985 RMK AO2 T01900139
KONZ 222355Z AUTO 36005KT 10SM SCT060 20/14 A2985 RMK AO2 T01950139 10200 20187
KONZ 222335Z AUTO 01006KT 10SM OVC060 20/14 A2984 RMK AO2 T01970141
KONZ 222315Z AUTO 01007KT 10SM SCT033 SCT043 OVC050 20/15 A2984 RMK AO2 T01960147
KONZ 222255Z AUTO 36004KT 10SM BKN033 OVC043 19/15 A2984 RMK AO2 T01930145
KONZ 222235Z AUTO 36006KT 10SM BKN029 OVC033 19/15 A2984 RMK AO2 T01930145
KONZ 222215Z AUTO 36008KT 10SM OVC024 19/15 A2983 RMK AO2 T01940147
KONZ 222155Z AUTO 01009KT 10SM BKN025 BKN030 OVC045 20/15 A2983 RMK AO2 T01970147
KONZ 222135Z AUTO 02007KT 10SM SCT021 BKN026 OVC045 20/15 A2983 RMK AO2 T01980153
KONZ 222115Z AUTO 00000KT 10SM SCT020 BKN024 OVC034 19/16 A2983 RMK AO2 T01910163
KONZ 222055Z AUTO 08003KT 10SM OVC036 19/16 A2983 RMK AO2 T01920164
KONZ 222035Z AUTO 05007KT 10SM -DZ OVC036 19/16 A2982 RMK AO2 T01920156
KONZ 222015Z AUTO 03008G14KT 10SM -DZ SCT028 OVC036 20/16 A2982 RMK AO2 T01950156
KONZ 221955Z AUTO 03008KT 10SM OVC032 20/15 A2983 RMK AO2 T01990149
KONZ 221935Z AUTO 02004KT 10SM -DZ OVC032 20/15 A2982 RMK AO2 T01980153
KONZ 221915Z AUTO 02004KT 10SM -RA BKN034 BKN046 OVC049 19/16 A2983 RMK AO2 T01940158
KONZ 221855Z AUTO 01005KT 10SM -RA SCT040 OVC049 19/16 A2982 RMK AO2 T01940157
KONZ 221835Z AUTO 03006KT 10SM BKN043 OVC049 19/15 A2983 RMK AO2 T01900151
KONZ 221815Z AUTO 04008KT 10SM -DZ SCT020 OVC041 19/15 A2983 RMK AO2 T01890149
KONZ 221755Z AUTO 03008KT 10SM -RA SCT022 OVC041 19/16 A2983 RMK AO2 T01910159 10207 20179
KONZ 221735Z AUTO 03009G14KT 10SM -RA OVC039 18/15 A2983 RMK AO2 T01820149
KONZ 221715Z AUTO 02009G14KT 10SM -RA SCT015 OVC039 18/15 A2983 RMK AO2 T01800152
KONZ 221655Z AUTO 03009KT 10SM -RA SCT015 BKN037 OVC055 18/15 A2983 RMK AO2 T01800153
KONZ 221635Z AUTO 02009G17KT 10SM -RA BKN013 BKN024 OVC029 18/16 A2983 RMK AO2 T01810163
KONZ 221615Z AUTO 04013G21KT 10SM -RA BKN013 OVC025 18/16 A2983 RMK AO2 T01800164
KONZ 221555Z AUTO 03012G17KT 10SM -DZ BKN013 BKN025 OVC031 19/16 A2982 RMK AO2 T01850164
KONZ 221535Z AUTO 05010G17KT 10SM -DZ BKN013 BKN025 OVC030 19/16 A2982 RMK AO2 T01860163
KONZ 221515Z AUTO 05011G14KT 10SM -DZ BKN013 OVC023 19/17 A2981 RMK AO2 T01900168
KONZ 221455Z AUTO 04012KT 10SM -RA OVC013 19/17 A2981 RMK AO2 T01930168
KONZ 221435Z AUTO 05012G17KT 10SM BKN013 OVC020 20/17 A2981 RMK AO2 T01950168
KONZ 221415Z AUTO 04013KT 10SM BKN013 OVC023 20/17 A2980 RMK AO2 T02000172
KONZ 221355Z AUTO 04009KT 10SM BKN013 OVC018 20/18 A2980 RMK AO2 T02000176
KONZ 221335Z AUTO 04012KT 10SM BKN013 BKN018 OVC032 20/18 A2979 RMK AO2 T02030179
KONZ 221315Z AUTO 04012KT 10SM BKN013 BKN026 BKN031 20/18 A2979 RMK AO2 T02040182
KONZ 221255Z AUTO 05007KT 10SM -RA BKN013 BKN034 OVC110 20/18 A2979 RMK AO2 T02020184
KONZ 221235Z AUTO 04010KT 10SM -RA SCT011 SCT035 OVC110 21/19 A2978 RMK AO2 T02050186
KONZ 221215Z AUTO 03008KT 10SM SCT028 OVC110 21/18 A2978 RMK AO2 T02060182
KONZ 221155Z AUTO 05007KT 10SM OVC110 21/18 A2978 RMK AO2 70001 T02060178 10215 20200
KONZ 221135Z AUTO 05007KT 10SM OVC110 21/18 A2977 RMK AO2 T02050179
KONZ 221115Z AUTO 05006KT 10SM OVC110 20/18 A2977 RMK AO2 T02000180
KONZ 221055Z AUTO 05006KT 10SM -RA OVC100 20/18 A2977 RMK AO2 T02020180
KONZ 221035Z AUTO 05007KT 10SM BKN100 OVC120 20/18 A2977 RMK AO2 T02030181
KONZ 221015Z AUTO 05004KT 10SM SCT080 SCT120 20/18 A2976 RMK AO2 T02010182
KONZ 220955Z AUTO 04004KT 10SM SCT040 SCT055 BKN080 20/19 A2976 RMK AO2 T02020185
KONZ 220935Z AUTO 05005KT 10SM BKN040 21/19 A2975 RMK AO2 T02050185
KONZ 220915Z AUTO 05005KT 10SM BKN039 20/19 A2975 RMK AO2 T02040187
KONZ 220855Z AUTO 05005KT 10SM SCT041 20/19 A2975 RMK AO2 T02030188
KONZ 220835Z AUTO 06004KT 10SM CLR 20/19 A2975 RMK AO2 T02030187
KONZ 220815Z AUTO 06005KT 10SM CLR 21/19 A2974 RMK AO2 T02050188
KONZ 220755Z AUTO 04004KT 10SM CLR 21/19 A2975 RMK AO2 T02050190
KONZ 220735Z AUTO 05004KT 10SM SCT080 SCT110 21/19 A2974 RMK AO2 T02080190
KONZ 220715Z AUTO 06003KT 10SM BKN080 OVC110 21/19 A2975 RMK AO2 T02130191
KONZ 220655Z AUTO 08003KT 10SM OVC110 21/19 A2976 RMK AO2 T02140191
KONZ 220635Z AUTO 09004KT 10SM OVC110 21/19 A2976 RMK AO2 T02140193
KONZ 220615Z AUTO 08004KT 10SM OVC110 21/20 A2976 RMK AO2 T02130197
KONZ 220555Z AUTO 07005KT 10SM SCT060 SCT075 OVC100 21/20 A2976 RMK AO2 60001 T02100197 10223 20210 402300198
KONZ 220535Z AUTO 06004KT 10SM BKN060 BKN075 21/20 A2976 RMK AO2 T02120200
KONZ 220515Z AUTO 07003KT 10SM -DZ SCT070 SCT075 BKN100 21/20 A2976 RMK AO2 T02130200
KONZ 220455Z AUTO 07004KT 7SM -RA SCT085 OVC110 22/20 A2976 RMK AO2 T02150203
KONZ 220435Z AUTO 06006KT 10SM -RA SCT035 BKN085 OVC100 22/20 A2976 RMK AO2 T02170201
KONZ 220415Z AUTO 09007KT 10SM BKN039 OVC070 22/20 A2977 RMK AO2 T02190199
KONZ 220355Z AUTO 05005KT 10SM BKN041 BKN050 OVC065 22/20 A2977 RMK AO2 T02170200
KONZ 220335Z AUTO 05006KT 10SM SCT041 BKN050 OVC065 22/20 A2977 RMK AO2 T02170197
KONZ 220315Z AUTO 06005KT 10SM BKN050 BKN065 22/20 A2977 RMK AO2 T02150195
KONZ 220255Z AUTO 04005KT 10SM BKN075 22/19 A2977 RMK AO2 60001 T02150191
KONZ 220235Z AUTO 05004KT 10SM BKN075 OVC100 22/19 A2977 RMK AO2 T02160192
KONZ 220215Z AUTO 06006KT 10SM SCT065 OVC100 22/19 A2978 RMK AO2 T02160191
KONZ 220155Z AUTO 06003KT 10SM BKN065 OVC090 22/19 A2977 RMK AO2 T02160193
KONZ 220135Z AUTO 05004KT 10SM BKN065 OVC090 22/19 A2977 RMK AO2 T02160192
KONZ 220115Z AUTO 06004KT 10SM OVC090 22/19 A2976 RMK AO2 T02170192
KONZ 220055Z AUTO 07004KT 10SM OVC080 22/19 A2976 RMK AO2 P0001 T02200192
KONZ 220035Z AUTO 07004KT 10SM OVC080 22/19 A2976 RMK AO2 T02200190
KONZ 220015Z AUTO 08004KT 10SM OVC080 22/19 A2976 RMK AO2 T02220191
KONZ 212355Z AUTO 09004KT 10SM SCT018 SCT065 OVC080 22/19 A2976 RMK AO2 T02240190 10230 20209
KONZ 212335Z AUTO 09006KT 10SM SCT018 BKN065 OVC080 23/19 A2976 RMK AO2 T02250192
KONZ 212316Z AUTO 10003KT 10SM BKN018 OVC070 23/19 A2976 RMK AO2 T02250193
KONZ 212255Z AUTO 12005KT 10SM SCT018 BKN031 OVC070 23/19 A2976 RMK AO2 T02260192
KONZ 212235Z AUTO 11005KT 10SM BKN021 OVC030 23/19 A2976 RMK AO2 T02270192
KONZ 212215Z AUTO 11003KT 10SM OVC030 23/19 A2976 RMK AO2 T02280192
KONZ 212155Z AUTO 09005KT 10SM OVC026 23/19 A2976 RMK AO2 T02250190
KONZ 212135Z AUTO 11005KT 10SM OVC021 22/19 A2976 RMK AO2 T02210193
KONZ 212115Z AUTO 11005KT 10SM OVC021 22/19 A2976 RMK AO2 T02200191
KONZ 212055Z AUTO 11004KT 10SM OVC019 22/19 A2976 RMK AO2 T02180191
KONZ 212035Z AUTO 11006KT 10SM OVC017 22/19 A2976 RMK AO2 T02160190
KONZ 212015Z AUTO 13006KT 10SM OVC017 22/19 A2976 RMK AO2 T02160191
KONZ 211955Z AUTO 12004KT 10SM OVC015 22/19 A2976 RMK AO2 T02170194